createdAt,value
2022-07-29T00:00:19.510Z,58.75
2022-07-29T00:02:21.189Z,58.34
2022-07-29T00:04:22.840Z,58.40
2022-07-29T00:06:24.418Z,58.90
2022-07-29T00:08:25.921Z,58.51
2022-07-29T00:10:27.436Z,58.39
2022-07-29T00:12:29.011Z,58.75
2022-07-29T00:14:31.346Z,58.53
2022-07-29T00:16:32.911Z,58.29
2022-07-29T00:18:34.472Z,58.26
2022-07-29T00:20:35.975Z,58.45
2022-07-29T00:22:40.815Z,58.45
2022-07-29T00:24:42.331Z,58.25
2022-07-29T00:26:43.838Z,58.54
2022-07-29T00:28:45.343Z,59.08
2022-07-29T00:30:46.894Z,58.46
2022-07-29T00:32:48.431Z,58.52
2022-07-29T00:35:08.233Z,58.46
2022-07-29T00:37:09.734Z,58.44
2022-07-29T00:39:11.279Z,58.49
2022-07-29T00:41:13.102Z,58.56
2022-07-29T00:43:15.767Z,58.84
2022-07-29T00:45:18.576Z,58.44
2022-07-29T00:47:20.073Z,58.42
2022-07-29T00:49:21.733Z,58.17
2022-07-29T00:51:23.398Z,58.65
2022-07-29T00:53:26.225Z,58.53
2022-07-29T00:55:29.898Z,58.49
2022-07-29T00:57:31.499Z,58.32
2022-07-29T00:59:34.658Z,58.16
2022-07-29T01:01:37.268Z,58.07
2022-07-29T01:03:38.822Z,57.93
2022-07-29T01:05:50.055Z,58.23
2022-07-29T01:07:55.274Z,58.14
2022-07-29T01:09:58.098Z,58.36
2022-07-29T01:12:00.160Z,58.08
2022-07-29T01:14:02.849Z,57.98
2022-07-29T01:16:11.638Z,58.27
2022-07-29T01:18:22.127Z,58.22
2022-07-29T01:20:31.318Z,58.25
2022-07-29T01:22:39.922Z,58.40
2022-07-29T01:25:04.184Z,58.15
2022-07-29T01:27:11.294Z,58.64
2022-07-29T01:29:46.234Z,57.84
2022-07-29T01:32:04.779Z,58.08
2022-07-29T01:34:08.986Z,58.22
2022-07-29T01:36:18.381Z,58.31
2022-07-29T01:38:24.222Z,57.87
2022-07-29T01:40:34.168Z,58.26
2022-07-29T01:42:49.480Z,58.24
2022-07-29T01:45:10.367Z,57.95
2022-07-29T01:47:16.611Z,57.99
2022-07-29T01:49:23.785Z,58.32
2022-07-29T01:51:32.528Z,58.20
2022-07-29T01:53:39.954Z,57.09
2022-07-29T01:55:45.400Z,57.91
2022-07-29T01:57:49.174Z,58.10
2022-07-29T01:59:52.005Z,58.09
2022-07-29T02:01:55.181Z,58.11
2022-07-29T02:03:58.298Z,58.44
2022-07-29T02:06:02.688Z,58.13
2022-07-29T02:08:06.596Z,58.49
2022-07-29T02:10:09.870Z,58.40
2022-07-29T02:12:12.716Z,58.10
2022-07-29T02:14:17.016Z,57.77
2022-07-29T02:16:22.045Z,58.18
2022-07-29T02:18:26.462Z,58.26
2022-07-29T02:20:29.986Z,58.14
2022-07-29T02:22:34.451Z,57.70
2022-07-29T02:24:38.686Z,59.63
2022-07-29T02:26:44.031Z,58.58
2022-07-29T02:28:47.280Z,58.51
2022-07-29T02:30:52.085Z,58.36
2022-07-29T02:32:54.672Z,57.96
2022-07-29T02:34:57.653Z,57.66
2022-07-29T02:36:59.971Z,57.95
2022-07-29T02:39:03.115Z,58.28
2022-07-29T02:41:09.597Z,58.03
2022-07-29T02:43:11.863Z,58.45
2022-07-29T02:45:13.491Z,58.57
2022-07-29T02:47:21.803Z,58.36
2022-07-29T02:49:39.665Z,58.15
2022-07-29T02:51:47.164Z,57.99
2022-07-29T02:53:52.271Z,57.83
2022-07-29T02:56:03.014Z,58.06
2022-07-29T02:58:30.605Z,58.02
2022-07-29T03:00:36.586Z,57.66
2022-07-29T03:02:42.646Z,57.61
2022-07-29T03:04:45.554Z,57.99
2022-07-29T03:06:47.897Z,58.04
2022-07-29T03:08:50.990Z,58.24
2022-07-29T03:10:53.873Z,58.00
2022-07-29T03:12:56.746Z,58.22
2022-07-29T03:15:00.168Z,58.46
2022-07-29T03:17:01.930Z,58.77
2022-07-29T03:19:05.645Z,58.52
2022-07-29T03:21:07.228Z,58.79
2022-07-29T03:23:12.056Z,59.00
2022-07-29T03:25:15.292Z,58.80
2022-07-29T03:27:16.926Z,59.19
2022-07-29T03:29:18.397Z,58.77
2022-07-29T03:31:21.583Z,58.88
2022-07-29T03:33:23.281Z,59.24
2022-07-29T03:35:25.633Z,59.64
2022-07-29T03:37:27.428Z,59.31
2022-07-29T03:39:32.375Z,59.31
2022-07-29T03:41:34.885Z,59.22
2022-07-29T03:43:39.264Z,59.75
2022-07-29T03:45:54.495Z,59.45
2022-07-29T03:48:00.989Z,59.62
2022-07-29T03:50:07.588Z,59.89
2022-07-29T03:52:12.433Z,59.80
2022-07-29T03:54:14.452Z,59.81
2022-07-29T03:56:21.884Z,60.03
2022-07-29T03:58:27.205Z,60.11
2022-07-29T04:00:29.636Z,59.69
2022-07-29T04:02:32.598Z,60.28
2022-07-29T04:04:35.641Z,60.23
2022-07-29T04:06:44.666Z,60.27
2022-07-29T04:08:47.338Z,60.35
2022-07-29T04:10:49.080Z,60.31
2022-07-29T04:12:51.054Z,60.19
2022-07-29T04:14:52.637Z,60.48
2022-07-29T04:16:54.139Z,60.68
2022-07-29T04:18:55.670Z,60.45
2022-07-29T04:20:57.196Z,60.36
2022-07-29T04:22:58.678Z,60.56
2022-07-29T04:25:03.923Z,60.35
2022-07-29T04:27:05.848Z,60.69
2022-07-29T04:29:07.466Z,60.60
2022-07-29T04:31:09.072Z,60.23
2022-07-29T04:33:10.646Z,60.30
2022-07-29T04:35:12.156Z,60.28
2022-07-29T04:37:13.782Z,60.34
2022-07-29T04:39:20.687Z,60.03
2022-07-29T04:41:30.853Z,59.94
2022-07-29T04:43:38.547Z,59.82
2022-07-29T04:45:40.525Z,59.83
2022-07-29T04:47:41.996Z,59.76
2022-07-29T04:49:43.515Z,59.65
2022-07-29T04:51:45.021Z,59.61
2022-07-29T04:53:46.679Z,59.48
2022-07-29T04:55:48.250Z,59.08
2022-07-29T04:57:49.739Z,59.27
2022-07-29T04:59:51.267Z,59.06
2022-07-29T05:01:52.857Z,59.13
2022-07-29T05:03:59.864Z,59.18
2022-07-29T05:06:02.035Z,58.86
2022-07-29T05:08:03.735Z,58.92
2022-07-29T05:10:05.889Z,58.91
2022-07-29T05:12:07.744Z,58.93
2022-07-29T05:14:09.328Z,58.95
2022-07-29T05:16:11.171Z,58.92
2022-07-29T05:18:12.851Z,59.31
2022-07-29T05:20:14.401Z,59.17
2022-07-29T05:22:16.001Z,58.86
2022-07-29T05:24:19.288Z,59.25
2022-07-29T05:26:21.138Z,58.44
2022-07-29T05:28:22.685Z,58.48
2022-07-29T05:30:24.464Z,58.15
2022-07-29T05:32:25.990Z,58.17
2022-07-29T05:34:27.816Z,58.29
2022-07-29T05:36:29.383Z,58.17
2022-07-29T05:38:30.882Z,58.67
2022-07-29T05:40:33.359Z,58.29
2022-07-29T05:42:35.037Z,58.20
2022-07-29T05:44:40.329Z,59.27
2022-07-29T05:46:41.974Z,58.25
2022-07-29T05:48:43.539Z,58.21
2022-07-29T05:50:45.084Z,58.25
2022-07-29T05:52:46.568Z,58.47
2022-07-29T05:54:48.254Z,58.29
2022-07-29T05:56:49.745Z,58.30
2022-07-29T05:58:52.072Z,58.39
2022-07-29T06:00:54.010Z,58.29
2022-07-29T06:02:55.672Z,58.26
2022-07-29T06:04:57.183Z,57.99
2022-07-29T06:06:58.818Z,58.04
2022-07-29T06:09:00.952Z,58.11
2022-07-29T06:11:14.464Z,58.14
2022-07-29T06:13:17.023Z,58.53
2022-07-29T06:15:18.839Z,58.01
2022-07-29T06:17:20.318Z,58.02
2022-07-29T06:19:22.046Z,58.12
2022-07-29T06:21:23.823Z,57.78
2022-07-29T06:23:25.301Z,58.35
2022-07-29T06:25:27.444Z,57.48
2022-07-29T06:27:28.998Z,57.71
2022-07-29T06:29:30.646Z,58.07
2022-07-29T06:31:32.222Z,58.03
2022-07-29T06:33:34.412Z,57.89
2022-07-29T06:35:39.262Z,58.25
2022-07-29T06:37:43.690Z,57.58
2022-07-29T06:39:47.433Z,57.68
2022-07-29T06:41:52.372Z,57.78
2022-07-29T06:43:55.218Z,57.86
2022-07-29T06:46:02.787Z,57.69
2022-07-29T06:48:04.679Z,57.67
2022-07-29T06:50:07.802Z,57.66
2022-07-29T06:52:09.345Z,57.62
2022-07-29T06:54:10.904Z,57.40
2022-07-29T06:56:14.858Z,57.58
2022-07-29T06:58:18.814Z,56.62
2022-07-29T07:00:20.319Z,56.85
2022-07-29T07:02:21.869Z,56.68
2022-07-29T07:04:23.374Z,56.48
2022-07-29T07:06:24.944Z,56.11
2022-07-29T07:08:26.716Z,55.90
2022-07-29T07:10:28.543Z,55.75
2022-07-29T07:12:30.065Z,56.55
2022-07-29T07:14:31.630Z,55.65
2022-07-29T07:16:33.690Z,55.86
2022-07-29T07:18:35.350Z,55.72
2022-07-29T07:20:37.574Z,55.87
2022-07-29T07:22:39.164Z,56.34
2022-07-29T07:24:40.656Z,55.74
2022-07-29T07:26:42.633Z,55.46
2022-07-29T07:28:44.221Z,55.49
2022-07-29T07:30:46.745Z,56.47
2022-07-29T07:32:48.244Z,56.32
2022-07-29T07:34:49.826Z,56.39
2022-07-29T07:36:51.323Z,56.56
2022-07-29T07:38:52.824Z,57.08
2022-07-29T07:40:54.337Z,57.61
2022-07-29T07:42:55.868Z,56.20
2022-07-29T07:45:12.700Z,56.20
2022-07-29T07:47:16.649Z,56.43
2022-07-29T07:49:19.868Z,56.35
2022-07-29T07:51:21.421Z,55.44
2022-07-29T07:53:23.084Z,56.05
2022-07-29T07:55:25.245Z,55.88
2022-07-29T07:57:26.816Z,55.26
2022-07-29T07:59:28.290Z,55.58
2022-07-29T08:01:29.892Z,55.72
2022-07-29T08:03:50.832Z,55.55
2022-07-29T08:05:52.880Z,55.36
2022-07-29T08:07:54.505Z,55.58
2022-07-29T08:09:55.986Z,55.23
2022-07-29T08:11:59.656Z,55.32
2022-07-29T08:14:02.330Z,55.21
2022-07-29T08:16:12.678Z,55.56
2022-07-29T08:18:14.597Z,55.52
2022-07-29T08:20:16.097Z,55.81
2022-07-29T08:22:17.637Z,55.79
2022-07-29T08:24:37.707Z,55.89
2022-07-29T08:26:39.205Z,55.77
2022-07-29T08:28:45.694Z,55.58
2022-07-29T08:30:47.244Z,55.25
2022-07-29T08:32:54.198Z,54.86
2022-07-29T08:34:56.522Z,54.75
2022-07-29T08:36:58.074Z,54.59
2022-07-29T08:39:00.423Z,54.50
2022-07-29T08:41:02.325Z,54.00
2022-07-29T08:43:09.281Z,53.79
2022-07-29T08:45:11.213Z,53.42
2022-07-29T08:47:15.578Z,53.53
2022-07-29T08:49:18.384Z,53.05
2022-07-29T08:51:21.957Z,53.03
2022-07-29T08:53:27.614Z,52.69
2022-07-29T08:55:29.174Z,52.65
2022-07-29T08:57:31.760Z,53.02
2022-07-29T08:59:35.541Z,52.46
2022-07-29T09:01:42.714Z,52.43
2022-07-29T09:03:47.585Z,52.56
2022-07-29T09:05:49.999Z,51.91
2022-07-29T09:07:52.092Z,52.18
2022-07-29T09:09:53.929Z,51.91
2022-07-29T09:11:57.784Z,51.75
2022-07-29T09:13:59.501Z,52.04
2022-07-29T09:16:04.564Z,52.10
2022-07-29T09:18:08.596Z,51.49
2022-07-29T09:20:24.162Z,51.71
2022-07-29T09:22:32.887Z,51.37
2022-07-29T09:24:45.444Z,51.38
2022-07-29T09:26:47.278Z,50.88
2022-07-29T09:28:48.785Z,50.77
2022-07-29T09:30:55.724Z,51.76
2022-07-29T09:33:03.706Z,50.96
2022-07-29T09:35:23.879Z,50.79
2022-07-29T09:37:29.925Z,50.85
2022-07-29T09:39:46.540Z,50.50
2022-07-29T09:41:54.108Z,50.66
2022-07-29T09:44:00.318Z,50.91
2022-07-29T09:46:14.792Z,51.14
2022-07-29T09:48:24.689Z,50.47
2022-07-29T09:50:45.094Z,50.87
2022-07-29T09:52:51.337Z,50.37
2022-07-29T09:54:54.917Z,50.15
2022-07-29T09:56:56.846Z,50.29
2022-07-29T09:59:09.448Z,49.91
2022-07-29T10:01:11.115Z,49.95
2022-07-29T10:03:14.059Z,50.10
2022-07-29T10:05:21.427Z,49.40
2022-07-29T10:07:23.189Z,50.11
2022-07-29T10:09:25.523Z,50.21
2022-07-29T10:11:27.075Z,50.45
2022-07-29T10:13:49.599Z,50.23
2022-07-29T10:15:52.303Z,50.12
2022-07-29T10:17:55.879Z,50.49
2022-07-29T10:19:57.917Z,50.18
2022-07-29T10:22:01.414Z,50.12
2022-07-29T10:24:03.406Z,50.14
2022-07-29T10:26:05.462Z,50.05
2022-07-29T10:28:07.136Z,50.65
2022-07-29T10:30:09.658Z,49.81
2022-07-29T10:32:35.090Z,50.03
2022-07-29T10:35:10.820Z,50.02
2022-07-29T10:37:39.402Z,48.52
2022-07-29T10:39:53.350Z,48.37
2022-07-29T10:42:07.094Z,47.91
2022-07-29T10:44:19.341Z,46.64
2022-07-29T10:46:25.551Z,46.71
2022-07-29T10:48:27.447Z,45.81
2022-07-29T10:50:29.056Z,45.97
2022-07-29T10:53:08.935Z,46.09
2022-07-29T10:55:37.588Z,46.39
2022-07-29T10:57:53.692Z,43.94
2022-07-29T11:00:17.216Z,44.31
2022-07-29T11:02:43.844Z,45.88
2022-07-29T11:04:46.912Z,44.71
2022-07-29T11:07:03.870Z,44.52
2022-07-29T11:09:19.940Z,46.27
2022-07-29T11:11:44.049Z,44.81
2022-07-29T11:13:59.771Z,43.26
2022-07-29T11:16:01.357Z,46.36
2022-07-29T11:18:02.855Z,45.24
2022-07-29T11:20:33.507Z,44.63
2022-07-29T11:22:36.716Z,44.60
2022-07-29T11:24:38.792Z,44.82
2022-07-29T11:27:10.009Z,43.03
2022-07-29T11:29:23.117Z,46.39
2022-07-29T11:31:45.071Z,47.71
2022-07-29T11:33:55.965Z,45.97
2022-07-29T11:36:11.266Z,47.32
2022-07-29T11:38:32.121Z,48.47
2022-07-29T11:40:34.007Z,47.63
2022-07-29T11:42:35.440Z,46.80
2022-07-29T11:45:43.824Z,47.59
2022-07-29T11:47:36.988Z,47.32
2022-07-29T11:49:48.179Z,46.04
2022-07-29T11:51:58.783Z,46.31
2022-07-29T11:54:05.172Z,47.39
2022-07-29T11:56:10.341Z,46.11
2022-07-29T11:58:13.148Z,46.80
2022-07-29T12:00:39.394Z,49.54
2022-07-29T12:02:48.524Z,47.05
2022-07-29T12:04:58.177Z,47.84
2022-07-29T12:07:00.534Z,47.70
2022-07-29T12:09:08.499Z,48.02
2022-07-29T12:11:21.639Z,44.50
2022-07-29T12:13:37.194Z,47.86
2022-07-29T12:15:47.050Z,46.73
2022-07-29T12:17:49.198Z,47.75
2022-07-29T12:19:50.909Z,47.38
2022-07-29T12:21:56.877Z,46.08
2022-07-29T12:24:08.928Z,49.05
2022-07-29T12:26:25.376Z,48.33
2022-07-29T12:28:28.198Z,47.09
2022-07-29T12:30:51.638Z,50.03
2022-07-29T12:32:53.626Z,47.97
2022-07-29T12:34:55.228Z,49.41
2022-07-29T12:36:56.910Z,48.95
2022-07-29T12:38:58.520Z,48.80
2022-07-29T12:41:00.218Z,49.23
2022-07-29T12:43:13.781Z,50.25
2022-07-29T12:45:17.508Z,47.20
2022-07-29T12:47:20.559Z,48.36
2022-07-29T12:49:23.942Z,48.53
2022-07-29T12:51:33.775Z,49.76
2022-07-29T12:53:36.785Z,49.49
2022-07-29T12:55:52.272Z,49.41
2022-07-29T12:57:54.334Z,49.14
2022-07-29T13:00:14.740Z,50.25
2022-07-29T13:02:25.625Z,49.57
2022-07-29T13:04:29.400Z,48.61
2022-07-29T13:06:45.980Z,47.59
2022-07-29T13:09:00.966Z,49.40
2022-07-29T13:11:02.516Z,49.16
2022-07-29T13:13:10.540Z,48.86
2022-07-29T13:15:16.125Z,49.69
2022-07-29T13:17:23.969Z,47.99
2022-07-29T13:19:35.214Z,49.52
2022-07-29T13:21:38.574Z,49.21
2022-07-29T13:23:40.152Z,49.61
2022-07-29T13:25:41.737Z,50.13
2022-07-29T13:27:45.513Z,49.92
2022-07-29T13:29:47.456Z,49.74
2022-07-29T13:31:48.998Z,49.32
2022-07-29T13:33:50.530Z,49.75
2022-07-29T13:35:54.554Z,50.08
2022-07-29T13:37:56.162Z,49.68
2022-07-29T13:39:58.277Z,49.52
2022-07-29T13:42:00.503Z,48.41
2022-07-29T13:44:02.329Z,47.56
2022-07-29T13:46:03.955Z,43.56
2022-07-29T13:48:07.241Z,43.07
2022-07-29T13:50:10.881Z,42.42
2022-07-29T13:52:12.484Z,43.27
2022-07-29T13:54:14.537Z,43.87
2022-07-29T13:56:16.135Z,42.53
2022-07-29T13:58:17.639Z,41.08
2022-07-29T14:00:20.138Z,40.36
2022-07-29T14:02:25.791Z,41.58
2022-07-29T14:04:27.860Z,42.43
2022-07-29T14:06:29.582Z,43.20
2022-07-29T14:08:31.467Z,43.80
2022-07-29T14:10:33.000Z,44.08
2022-07-29T14:12:34.670Z,44.59
2022-07-29T14:14:37.465Z,44.83
2022-07-29T14:16:43.119Z,45.24
2022-07-29T14:18:49.205Z,44.41
2022-07-29T14:20:52.014Z,45.03
2022-07-29T14:22:53.513Z,45.19
2022-07-29T14:24:56.287Z,45.29
2022-07-29T14:26:57.851Z,45.28
2022-07-29T14:28:59.433Z,45.78
2022-07-29T14:31:01.025Z,45.82
2022-07-29T14:33:03.082Z,46.20
2022-07-29T14:35:05.873Z,45.49
2022-07-29T14:37:08.016Z,45.52
2022-07-29T14:39:09.771Z,46.33
2022-07-29T14:41:11.305Z,46.50
2022-07-29T14:43:13.003Z,46.88
2022-07-29T14:45:15.089Z,46.04
2022-07-29T14:47:16.576Z,46.84
2022-07-29T14:49:18.112Z,46.50
2022-07-29T14:51:19.677Z,47.43
2022-07-29T14:53:21.206Z,46.38
2022-07-29T14:55:22.735Z,47.02
2022-07-29T14:57:24.293Z,47.31
2022-07-29T14:59:26.858Z,46.96
2022-07-29T15:01:28.549Z,45.83
2022-07-29T15:03:30.236Z,46.57
2022-07-29T15:05:35.924Z,45.28
2022-07-29T15:07:37.467Z,44.48
2022-07-29T15:09:40.380Z,44.72
2022-07-29T15:11:51.605Z,44.80
2022-07-29T15:13:53.209Z,45.07
2022-07-29T15:15:59.715Z,45.08
2022-07-29T15:18:01.642Z,44.47
2022-07-29T15:20:04.078Z,43.74
2022-07-29T15:22:06.398Z,44.51
2022-07-29T15:24:08.231Z,44.10
2022-07-29T15:26:09.701Z,44.68
2022-07-29T15:28:11.281Z,44.16
2022-07-29T15:30:31.603Z,44.71
2022-07-29T15:32:34.596Z,45.19
2022-07-29T15:34:36.629Z,45.71
2022-07-29T15:36:53.996Z,45.51
2022-07-29T15:38:56.051Z,46.20
2022-07-29T15:40:57.653Z,46.58
2022-07-29T15:43:01.821Z,46.48
2022-07-29T15:45:04.398Z,46.08
2022-07-29T15:47:09.023Z,46.96
2022-07-29T15:49:10.708Z,47.03
2022-07-29T15:51:12.255Z,46.63
2022-07-29T15:53:13.759Z,46.72
2022-07-29T15:55:16.354Z,47.11
2022-07-29T15:57:17.862Z,47.09
2022-07-29T15:59:22.322Z,47.10
2022-07-29T16:01:25.061Z,47.62
2022-07-29T16:03:26.677Z,47.73
2022-07-29T16:05:29.621Z,47.85
2022-07-29T16:07:31.314Z,48.04
2022-07-29T16:09:34.269Z,47.50
2022-07-29T16:11:35.981Z,47.91
2022-07-29T16:13:37.496Z,48.05
2022-07-29T16:15:38.997Z,48.29
2022-07-29T16:17:40.488Z,48.15
2022-07-29T16:19:43.349Z,48.35
2022-07-29T16:21:44.936Z,48.27
2022-07-29T16:23:46.535Z,48.11
2022-07-29T16:25:59.600Z,48.58
2022-07-29T16:28:02.577Z,48.95
2022-07-29T16:30:04.701Z,48.40
2022-07-29T16:32:06.777Z,48.96
2022-07-29T16:34:08.325Z,49.26
2022-07-29T16:36:09.870Z,49.56
2022-07-29T16:38:14.740Z,49.39
2022-07-29T16:40:16.247Z,49.92
2022-07-29T16:42:36.924Z,49.93
2022-07-29T16:44:39.299Z,50.35
2022-07-29T16:46:44.157Z,50.53
2022-07-29T16:48:46.208Z,50.93
2022-07-29T16:50:47.823Z,51.32
2022-07-29T16:52:49.977Z,51.38
2022-07-29T16:54:51.737Z,52.09
2022-07-29T16:56:53.244Z,51.92
2022-07-29T16:58:57.212Z,52.58
2022-07-29T17:01:00.013Z,53.25
2022-07-29T17:03:01.530Z,53.51
2022-07-29T17:05:03.155Z,53.63
2022-07-29T17:07:04.725Z,54.27
2022-07-29T17:09:08.637Z,54.31
2022-07-29T17:11:10.128Z,55.02
2022-07-29T17:13:11.623Z,54.95
2022-07-29T17:15:13.413Z,55.46
2022-07-29T17:17:16.707Z,55.18
2022-07-29T17:19:22.924Z,55.57
2022-07-29T17:21:25.154Z,56.10
2022-07-29T17:23:26.648Z,55.66
2022-07-29T17:25:28.328Z,56.01
2022-07-29T17:27:29.985Z,55.78
2022-07-29T17:29:31.537Z,56.28
2022-07-29T17:31:33.048Z,56.05
2022-07-29T17:33:35.110Z,55.75
2022-07-29T17:35:55.065Z,55.82
2022-07-29T17:37:56.692Z,56.15
2022-07-29T17:40:00.399Z,56.27
2022-07-29T17:42:05.599Z,56.09
2022-07-29T17:44:09.379Z,55.91
2022-07-29T17:46:11.384Z,55.75
2022-07-29T17:48:12.985Z,55.89
2022-07-29T17:50:14.553Z,56.27
2022-07-29T17:52:18.305Z,55.99
2022-07-29T17:54:20.142Z,56.01
2022-07-29T17:56:22.174Z,55.92
2022-07-29T17:58:24.326Z,56.11
2022-07-29T18:00:26.368Z,55.75
2022-07-29T18:02:28.407Z,55.79
2022-07-29T18:04:31.357Z,55.86
2022-07-29T18:06:32.850Z,55.93
2022-07-29T18:08:34.986Z,55.89
2022-07-29T18:10:37.276Z,55.77
2022-07-29T18:12:38.763Z,56.00
2022-07-29T18:14:40.337Z,55.44
2022-07-29T18:16:41.915Z,55.61
2022-07-29T18:18:46.518Z,55.66
2022-07-29T18:20:48.369Z,55.41
2022-07-29T18:22:49.887Z,55.59
2022-07-29T18:24:51.685Z,55.42
2022-07-29T18:26:53.965Z,55.43
2022-07-29T18:28:55.485Z,55.60
2022-07-29T18:30:57.895Z,55.15
2022-07-29T18:33:20.313Z,55.47
2022-07-29T18:35:21.187Z,55.46
2022-07-29T18:38:02.109Z,55.23
2022-07-29T18:39:44.297Z,55.50
2022-07-29T18:41:49.934Z,55.41
2022-07-29T18:43:52.323Z,55.18
2022-07-29T18:45:56.091Z,55.81
2022-07-29T18:47:58.720Z,55.99
2022-07-29T18:50:00.250Z,55.72
2022-07-29T18:52:01.936Z,56.18
2022-07-29T18:54:03.612Z,55.66
2022-07-29T18:56:05.151Z,56.07
2022-07-29T18:58:06.769Z,56.16
2022-07-29T19:00:08.988Z,55.83
2022-07-29T19:02:16.538Z,55.94
2022-07-29T19:04:18.824Z,56.46
2022-07-29T19:06:24.053Z,56.52
2022-07-29T19:08:27.241Z,56.72
2022-07-29T19:10:29.525Z,57.04
2022-07-29T19:12:31.168Z,56.87
2022-07-29T19:14:32.727Z,56.84
2022-07-29T19:16:34.441Z,56.95
2022-07-29T19:18:35.957Z,58.53
2022-07-29T19:20:38.398Z,59.30
2022-07-29T19:22:39.930Z,59.04
2022-07-29T19:24:41.435Z,58.39
2022-07-29T19:26:46.850Z,58.02
2022-07-29T19:28:48.768Z,57.64
2022-07-29T19:30:51.644Z,57.38
2022-07-29T19:32:53.265Z,57.20
2022-07-29T19:35:13.119Z,57.39
2022-07-29T19:37:14.633Z,57.29
2022-07-29T19:39:16.111Z,57.41
2022-07-29T19:41:17.632Z,57.24
2022-07-29T19:43:50.504Z,57.05
2022-07-29T19:45:40.942Z,57.06
2022-07-29T19:47:42.432Z,57.11
2022-07-29T19:49:43.929Z,57.30
2022-07-29T19:51:45.426Z,57.02
2022-07-29T19:53:46.986Z,57.41
2022-07-29T19:55:48.545Z,57.22
2022-07-29T19:57:50.887Z,57.07
2022-07-29T19:59:52.888Z,57.19
2022-07-29T20:01:54.449Z,56.86
2022-07-29T20:03:55.956Z,57.32
2022-07-29T20:05:57.645Z,57.15
2022-07-29T20:07:59.290Z,56.82
2022-07-29T20:10:00.898Z,56.88
2022-07-29T20:12:04.443Z,57.14
2022-07-29T20:14:05.985Z,57.01
2022-07-29T20:16:08.785Z,56.70
2022-07-29T20:18:10.318Z,56.99
2022-07-29T20:20:12.016Z,56.69
2022-07-29T20:22:14.456Z,56.84
2022-07-29T20:24:22.962Z,57.09
2022-07-29T20:26:24.420Z,56.67
2022-07-29T20:28:26.050Z,57.18
2022-07-29T20:30:27.536Z,56.91
2022-07-29T20:32:30.211Z,56.64
2022-07-29T20:34:31.714Z,56.72
2022-07-29T20:36:33.276Z,56.96
2022-07-29T20:38:34.831Z,56.79
2022-07-29T20:40:37.334Z,56.63
2022-07-29T20:42:38.876Z,57.05
2022-07-29T20:44:40.453Z,56.93
2022-07-29T20:46:42.216Z,57.08
2022-07-29T20:48:43.899Z,57.13
2022-07-29T20:50:47.478Z,57.13
2022-07-29T20:52:50.948Z,57.34
2022-07-29T20:54:52.635Z,57.22
2022-07-29T20:56:54.138Z,57.20
2022-07-29T20:58:55.670Z,57.60
2022-07-29T21:00:57.217Z,57.38
2022-07-29T21:02:58.845Z,57.28
2022-07-29T21:05:00.910Z,57.46
2022-07-29T21:07:03.875Z,57.58
2022-07-29T21:09:05.384Z,57.71
2022-07-29T21:11:07.098Z,58.14
2022-07-29T21:13:08.684Z,57.95
2022-07-29T21:15:13.396Z,57.80
2022-07-29T21:17:16.270Z,58.18
2022-07-29T21:19:17.874Z,58.00
2022-07-29T21:21:19.904Z,57.74
2022-07-29T21:23:21.461Z,57.83
2022-07-29T21:25:23.611Z,57.99
2022-07-29T21:27:43.561Z,57.85
2022-07-29T21:29:45.054Z,58.35
2022-07-29T21:31:46.552Z,58.23
2022-07-29T21:33:48.072Z,58.30
2022-07-29T21:38:11.250Z,58.08
2022-07-29T21:40:13.192Z,58.20
2022-07-29T21:42:14.705Z,58.40
2022-07-29T21:44:16.221Z,58.47
2022-07-29T21:46:18.115Z,58.46
2022-07-29T21:48:20.754Z,58.47
2022-07-29T21:50:22.297Z,58.22
2022-07-29T21:52:23.899Z,58.88
2022-07-29T21:54:25.534Z,58.70
2022-07-29T21:56:29.711Z,59.11
2022-07-29T21:58:33.074Z,58.83
2022-07-29T22:00:35.300Z,58.81
2022-07-29T22:02:36.836Z,58.74
2022-07-29T22:04:39.046Z,58.82
2022-07-29T22:06:40.652Z,58.74
2022-07-29T22:08:45.462Z,58.68
2022-07-29T22:10:46.954Z,58.77
2022-07-29T22:12:52.509Z,59.21
2022-07-29T22:14:54.091Z,59.31
2022-07-29T22:16:57.999Z,59.03
2022-07-29T22:18:59.901Z,59.11
2022-07-29T22:21:01.586Z,59.33
2022-07-29T22:23:03.069Z,59.09
2022-07-29T22:25:05.760Z,59.11
2022-07-29T22:27:07.242Z,59.31
2022-07-29T22:29:08.741Z,59.43
2022-07-29T22:31:10.431Z,59.22
2022-07-29T22:33:17.620Z,59.29
2022-07-29T22:35:19.590Z,59.05
2022-07-29T22:37:21.083Z,59.61
2022-07-29T22:39:22.593Z,59.36
2022-07-29T22:41:24.085Z,59.52
2022-07-29T22:43:25.597Z,59.23
2022-07-29T22:45:27.141Z,59.41
2022-07-29T22:47:45.760Z,59.29
2022-07-29T22:49:48.475Z,59.44
2022-07-29T22:51:50.032Z,59.67
2022-07-29T22:53:51.912Z,59.60
2022-07-29T22:55:53.404Z,59.67
2022-07-29T22:57:54.954Z,59.95
2022-07-29T22:59:56.424Z,59.88
2022-07-29T23:01:57.960Z,59.94
2022-07-29T23:03:59.760Z,59.64
2022-07-29T23:06:01.361Z,59.67
2022-07-29T23:08:02.953Z,59.73
2022-07-29T23:10:05.010Z,59.76
2022-07-29T23:12:06.952Z,60.12
2022-07-29T23:14:09.626Z,60.02
2022-07-29T23:16:11.266Z,59.95
2022-07-29T23:18:12.972Z,59.79
2022-07-29T23:20:15.001Z,60.04
2022-07-29T23:22:16.630Z,60.16
2022-07-29T23:24:20.128Z,60.80
2022-07-29T23:26:21.619Z,60.62
2022-07-29T23:28:23.139Z,60.72
2022-07-29T23:30:24.798Z,60.44
2022-07-29T23:32:26.324Z,60.49
2022-07-29T23:34:27.847Z,60.55
2022-07-29T23:36:29.585Z,61.10
2022-07-29T23:38:31.157Z,60.88
2022-07-29T23:40:32.978Z,63.46
2022-07-29T23:42:34.472Z,64.97
2022-07-29T23:44:36.067Z,66.12
2022-07-29T23:46:37.651Z,65.84
2022-07-29T23:48:39.183Z,65.94
2022-07-29T23:50:40.710Z,65.44
2022-07-29T23:52:43.463Z,66.76
2022-07-29T23:54:44.960Z,66.00
2022-07-29T23:56:46.589Z,67.41
2022-07-29T23:58:48.100Z,68.22
